sensor_id;sensor_type;location;lat;lon;timestamp;P1;durP1;ratioP1;P2;durP2;ratioP2
20179;SDS011;10249;48.900;9.090;2023-06-22T00:00:47;8.90;;;8.60;;
20179;SDS011;10249;48.900;9.090;2023-06-22T00:03:14;9.00;;;8.70;;
20179;SDS011;10249;48.900;9.090;2023-06-22T00:05:42;9.03;;;8.73;;
20179;SDS011;10249;48.900;9.090;2023-06-22T00:08:09;8.90;;;8.60;;
20179;SDS011;10249;48.900;9.090;2023-06-22T00:10:37;9.20;;;8.90;;
20179;SDS011;10249;48.900;9.090;2023-06-22T00:13:04;9.00;;;8.70;;
20179;SDS011;10249;48.900;9.090;2023-06-22T00:15:31;9.10;;;8.80;;
20179;SDS011;10249;48.900;9.090;2023-06-22T00:17:58;9.40;;;9.10;;
20179;SDS011;10249;48.900;9.090;2023-06-22T00:20:27;9.00;;;8.70;;
20179;SDS011;10249;48.900;9.090;2023-06-22T00:22:56;8.80;;;8.50;;
20179;SDS011;10249;48.900;9.090;2023-06-22T00:25:24;8.70;;;8.40;;
20179;SDS011;10249;48.900;9.090;2023-06-22T00:27:51;8.90;;;8.60;;
20179;SDS011;10249;48.900;9.090;2023-06-22T00:30:18;8.77;;;8.47;;
20179;SDS011;10249;48.900;9.090;2023-06-22T00:32:46;8.70;;;8.40;;
20179;SDS011;10249;48.900;9.090;2023-06-22T00:35:13;8.17;;;7.90;;
20179;SDS011;10249;48.900;9.090;2023-06-22T00:37:40;8.80;;;8.50;;
20179;SDS011;10249;48.900;9.090;2023-06-22T00:40:09;8.60;;;8.30;;
20179;SDS011;10249;48.900;9.090;2023-06-22T00:42:37;8.70;;;8.40;;
20179;SDS011;10249;48.900;9.090;2023-06-22T00:45:05;8.70;;;8.40;;
20179;SDS011;10249;48.900;9.090;2023-06-22T00:47:32;8.40;;;8.10;;
20179;SDS011;10249;48.900;9.090;2023-06-22T00:50:00;7.73;;;7.53;;
20179;SDS011;10249;48.900;9.090;2023-06-22T00:52:28;6.70;;;6.50;;
20179;SDS011;10249;48.900;9.090;2023-06-22T00:54:57;6.50;;;6.30;;
20179;SDS011;10249;48.900;9.090;2023-06-22T00:57:28;6.57;;;6.37;;
20179;SDS011;10249;48.900;9.090;2023-06-22T00:59:55;7.60;;;7.30;;
20179;SDS011;10249;48.900;9.090;2023-06-22T01:02:22;6.87;;;6.53;;
20179;SDS011;10249;48.900;9.090;2023-06-22T01:04:50;5.40;;;5.20;;
20179;SDS011;10249;48.900;9.090;2023-06-22T01:07:19;4.90;;;4.80;;
20179;SDS011;10249;48.900;9.090;2023-06-22T01:09:51;4.63;;;4.53;;
20179;SDS011;10249;48.900;9.090;2023-06-22T01:12:20;4.50;;;4.40;;
20179;SDS011;10249;48.900;9.090;2023-06-22T01:14:50;4.67;;;4.57;;
20179;SDS011;10249;48.900;9.090;2023-06-22T01:17:22;4.70;;;4.60;;
20179;SDS011;10249;48.900;9.090;2023-06-22T01:19:50;4.70;;;4.60;;
20179;SDS011;10249;48.900;9.090;2023-06-22T01:22:20;4.80;;;4.70;;
20179;SDS011;10249;48.900;9.090;2023-06-22T01:24:51;5.30;;;5.10;;
20179;SDS011;10249;48.900;9.090;2023-06-22T01:27:26;5.23;;;5.10;;
20179;SDS011;10249;48.900;9.090;2023-06-22T01:29:57;5.60;;;5.40;;
20179;SDS011;10249;48.900;9.090;2023-06-22T01:32:27;6.30;;;6.10;;
20179;SDS011;10249;48.900;9.090;2023-06-22T01:34:55;6.40;;;6.20;;
20179;SDS011;10249;48.900;9.090;2023-06-22T01:37:22;6.70;;;6.50;;
20179;SDS011;10249;48.900;9.090;2023-06-22T01:39:50;6.80;;;6.60;;
20179;SDS011;10249;48.900;9.090;2023-06-22T01:42:17;7.07;;;6.87;;
20179;SDS011;10249;48.900;9.090;2023-06-22T01:44:45;6.83;;;6.63;;
20179;SDS011;10249;48.900;9.090;2023-06-22T01:47:14;6.90;;;6.70;;
20179;SDS011;10249;48.900;9.090;2023-06-22T01:49:41;7.30;;;7.10;;
20179;SDS011;10249;48.900;9.090;2023-06-22T01:52:08;7.27;;;7.07;;
20179;SDS011;10249;48.900;9.090;2023-06-22T01:54:36;7.40;;;7.20;;
20179;SDS011;10249;48.900;9.090;2023-06-22T01:57:04;7.50;;;7.30;;
20179;SDS011;10249;48.900;9.090;2023-06-22T01:59:32;7.43;;;7.23;;
20179;SDS011;10249;48.900;9.090;2023-06-22T02:02:01;7.43;;;7.23;;
20179;SDS011;10249;48.900;9.090;2023-06-22T02:04:32;7.60;;;7.40;;
20179;SDS011;10249;48.900;9.090;2023-06-22T02:07:01;6.97;;;6.77;;
20179;SDS011;10249;48.900;9.090;2023-06-22T02:09:32;6.97;;;6.77;;
20179;SDS011;10249;48.900;9.090;2023-06-22T02:12:01;6.90;;;6.70;;
20179;SDS011;10249;48.900;9.090;2023-06-22T02:14:29;6.87;;;6.67;;
20179;SDS011;10249;48.900;9.090;2023-06-22T02:16:56;6.10;;;5.90;;
20179;SDS011;10249;48.900;9.090;2023-06-22T02:19:24;6.20;;;6.00;;
20179;SDS011;10249;48.900;9.090;2023-06-22T02:21:53;5.90;;;5.70;;
20179;SDS011;10249;48.900;9.090;2023-06-22T02:24:20;5.73;;;5.53;;
20179;SDS011;10249;48.900;9.090;2023-06-22T02:26:48;6.00;;;5.80;;
20179;SDS011;10249;48.900;9.090;2023-06-22T02:29:16;5.80;;;5.60;;
20179;SDS011;10249;48.900;9.090;2023-06-22T02:31:43;5.77;;;5.57;;
20179;SDS011;10249;48.900;9.090;2023-06-22T02:34:10;6.10;;;5.90;;
20179;SDS011;10249;48.900;9.090;2023-06-22T02:36:43;6.07;;;5.87;;
20179;SDS011;10249;48.900;9.090;2023-06-22T02:39:17;6.10;;;5.90;;
20179;SDS011;10249;48.900;9.090;2023-06-22T02:41:44;6.50;;;6.30;;
20179;SDS011;10249;48.900;9.090;2023-06-22T02:44:11;6.00;;;5.80;;
20179;SDS011;10249;48.900;9.090;2023-06-22T02:46:38;6.40;;;6.20;;
20179;SDS011;10249;48.900;9.090;2023-06-22T02:49:05;6.70;;;6.50;;
20179;SDS011;10249;48.900;9.090;2023-06-22T02:51:33;6.47;;;6.27;;
20179;SDS011;10249;48.900;9.090;2023-06-22T02:54:00;6.47;;;6.27;;
20179;SDS011;10249;48.900;9.090;2023-06-22T02:56:29;6.20;;;6.00;;
20179;SDS011;10249;48.900;9.090;2023-06-22T02:58:56;6.50;;;6.30;;
20179;SDS011;10249;48.900;9.090;2023-06-22T03:01:25;5.97;;;5.77;;
20179;SDS011;10249;48.900;9.090;2023-06-22T03:03:53;6.30;;;6.10;;
20179;SDS011;10249;48.900;9.090;2023-06-22T03:06:20;6.43;;;6.23;;
20179;SDS011;10249;48.900;9.090;2023-06-22T03:08:48;6.50;;;6.30;;
20179;SDS011;10249;48.900;9.090;2023-06-22T03:11:15;6.20;;;6.00;;
20179;SDS011;10249;48.900;9.090;2023-06-22T03:13:44;6.30;;;6.10;;
20179;SDS011;10249;48.900;9.090;2023-06-22T03:16:11;6.30;;;6.10;;
20179;SDS011;10249;48.900;9.090;2023-06-22T03:18:38;6.30;;;6.10;;
20179;SDS011;10249;48.900;9.090;2023-06-22T03:21:05;6.40;;;6.20;;
20179;SDS011;10249;48.900;9.090;2023-06-22T03:23:33;6.50;;;6.30;;
20179;SDS011;10249;48.900;9.090;2023-06-22T03:26:00;6.60;;;6.40;;
20179;SDS011;10249;48.900;9.090;2023-06-22T03:28:29;6.43;;;6.23;;
20179;SDS011;10249;48.900;9.090;2023-06-22T03:30:58;6.40;;;6.20;;
20179;SDS011;10249;48.900;9.090;2023-06-22T03:33:25;6.60;;;6.40;;
20179;SDS011;10249;48.900;9.090;2023-06-22T03:35:52;6.53;;;6.33;;
20179;SDS011;10249;48.900;9.090;2023-06-22T03:38:19;6.70;;;6.50;;
20179;SDS011;10249;48.900;9.090;2023-06-22T03:40:47;7.00;;;6.80;;
20179;SDS011;10249;48.900;9.090;2023-06-22T03:43:14;6.73;;;6.53;;
20179;SDS011;10249;48.900;9.090;2023-06-22T03:45:41;7.07;;;6.87;;
20179;SDS011;10249;48.900;9.090;2023-06-22T03:48:11;7.07;;;6.87;;
20179;SDS011;10249;48.900;9.090;2023-06-22T03:50:38;7.27;;;7.07;;
20179;SDS011;10249;48.900;9.090;2023-06-22T03:53:05;7.33;;;7.13;;
20179;SDS011;10249;48.900;9.090;2023-06-22T03:55:33;6.80;;;6.60;;
20179;SDS011;10249;48.900;9.090;2023-06-22T03:58:01;6.90;;;6.70;;
20179;SDS011;10249;48.900;9.090;2023-06-22T04:00:30;6.90;;;6.70;;
20179;SDS011;10249;48.900;9.090;2023-06-22T04:02:58;6.90;;;6.70;;
20179;SDS011;10249;48.900;9.090;2023-06-22T04:05:26;6.80;;;6.60;;
20179;SDS011;10249;48.900;9.090;2023-06-22T04:07:53;7.10;;;6.90;;
20179;SDS011;10249;48.900;9.090;2023-06-22T04:10:21;7.20;;;7.00;;
20179;SDS011;10249;48.900;9.090;2023-06-22T04:12:48;7.50;;;7.30;;
20179;SDS011;10249;48.900;9.090;2023-06-22T04:15:15;7.27;;;7.07;;
20179;SDS011;10249;48.900;9.090;2023-06-22T04:17:42;6.90;;;6.70;;
20179;SDS011;10249;48.900;9.090;2023-06-22T04:20:09;7.20;;;7.00;;
20179;SDS011;10249;48.900;9.090;2023-06-22T04:22:38;7.33;;;7.13;;
20179;SDS011;10249;48.900;9.090;2023-06-22T04:25:05;7.30;;;7.10;;
20179;SDS011;10249;48.900;9.090;2023-06-22T04:27:33;7.10;;;6.90;;
20179;SDS011;10249;48.900;9.090;2023-06-22T04:30:02;7.30;;;7.10;;
20179;SDS011;10249;48.900;9.090;2023-06-22T04:32:29;7.50;;;7.30;;
20179;SDS011;10249;48.900;9.090;2023-06-22T04:34:56;7.80;;;7.60;;
20179;SDS011;10249;48.900;9.090;2023-06-22T04:37:25;7.47;;;7.27;;
20179;SDS011;10249;48.900;9.090;2023-06-22T04:39:54;7.30;;;7.10;;
20179;SDS011;10249;48.900;9.090;2023-06-22T04:42:21;7.30;;;7.10;;
20179;SDS011;10249;48.900;9.090;2023-06-22T04:44:48;7.10;;;6.90;;
20179;SDS011;10249;48.900;9.090;2023-06-22T04:47:15;7.13;;;6.93;;
20179;SDS011;10249;48.900;9.090;2023-06-22T04:49:42;7.03;;;6.83;;
20179;SDS011;10249;48.900;9.090;2023-06-22T04:52:11;7.30;;;7.10;;
20179;SDS011;10249;48.900;9.090;2023-06-22T04:54:38;7.30;;;7.10;;
20179;SDS011;10249;48.900;9.090;2023-06-22T04:57:14;7.20;;;7.00;;
20179;SDS011;10249;48.900;9.090;2023-06-22T04:59:42;7.00;;;6.80;;
20179;SDS011;10249;48.900;9.090;2023-06-22T05:02:09;7.60;;;7.40;;
20179;SDS011;10249;48.900;9.090;2023-06-22T05:04:36;7.60;;;7.40;;
20179;SDS011;10249;48.900;9.090;2023-06-22T05:07:04;7.23;;;7.03;;
20179;SDS011;10249;48.900;9.090;2023-06-22T05:09:31;7.37;;;7.17;;
20179;SDS011;10249;48.900;9.090;2023-06-22T05:11:59;7.63;;;7.43;;
20179;SDS011;10249;48.900;9.090;2023-06-22T05:14:31;7.70;;;7.50;;
20179;SDS011;10249;48.900;9.090;2023-06-22T05:16:58;7.50;;;7.30;;
20179;SDS011;10249;48.900;9.090;2023-06-22T05:19:28;7.60;;;7.40;;
20179;SDS011;10249;48.900;9.090;2023-06-22T05:21:58;7.80;;;7.60;;
20179;SDS011;10249;48.900;9.090;2023-06-22T05:24:25;7.53;;;7.33;;
20179;SDS011;10249;48.900;9.090;2023-06-22T05:26:52;7.83;;;7.63;;
20179;SDS011;10249;48.900;9.090;2023-06-22T05:29:20;8.40;;;8.10;;
20179;SDS011;10249;48.900;9.090;2023-06-22T05:31:49;8.50;;;8.20;;
20179;SDS011;10249;48.900;9.090;2023-06-22T05:34:16;8.60;;;8.30;;
20179;SDS011;10249;48.900;9.090;2023-06-22T05:36:43;8.57;;;8.27;;
20179;SDS011;10249;48.900;9.090;2023-06-22T05:39:11;8.20;;;7.90;;
20179;SDS011;10249;48.900;9.090;2023-06-22T05:41:39;8.50;;;8.20;;
20179;SDS011;10249;48.900;9.090;2023-06-22T05:44:06;8.80;;;8.50;;
20179;SDS011;10249;48.900;9.090;2023-06-22T05:46:33;9.20;;;8.90;;
20179;SDS011;10249;48.900;9.090;2023-06-22T05:49:02;9.03;;;8.73;;
20179;SDS011;10249;48.900;9.090;2023-06-22T05:51:29;8.80;;;8.50;;
20179;SDS011;10249;48.900;9.090;2023-06-22T05:53:56;8.80;;;8.50;;
20179;SDS011;10249;48.900;9.090;2023-06-22T05:56:23;8.87;;;8.57;;
20179;SDS011;10249;48.900;9.090;2023-06-22T05:58:50;9.10;;;8.80;;
20179;SDS011;10249;48.900;9.090;2023-06-22T06:01:17;9.60;;;9.30;;
20179;SDS011;10249;48.900;9.090;2023-06-22T06:03:45;9.33;;;9.03;;
20179;SDS011;10249;48.900;9.090;2023-06-22T06:06:13;9.60;;;9.30;;
20179;SDS011;10249;48.900;9.090;2023-06-22T06:08:41;9.60;;;9.30;;
20179;SDS011;10249;48.900;9.090;2023-06-22T06:11:08;10.07;;;9.77;;
20179;SDS011;10249;48.900;9.090;2023-06-22T06:13:35;9.97;;;9.67;;
20179;SDS011;10249;48.900;9.090;2023-06-22T06:16:02;10.17;;;9.87;;
20179;SDS011;10249;48.900;9.090;2023-06-22T06:18:29;10.40;;;10.10;;
20179;SDS011;10249;48.900;9.090;2023-06-22T06:20:56;10.10;;;9.80;;
20179;SDS011;10249;48.900;9.090;2023-06-22T06:23:25;10.20;;;9.90;;
20179;SDS011;10249;48.900;9.090;2023-06-22T06:25:52;10.50;;;10.10;;
20179;SDS011;10249;48.900;9.090;2023-06-22T06:28:19;10.80;;;10.40;;
20179;SDS011;10249;48.900;9.090;2023-06-22T06:30:46;10.80;;;10.40;;
20179;SDS011;10249;48.900;9.090;2023-06-22T06:33:13;11.17;;;10.77;;
20179;SDS011;10249;48.900;9.090;2023-06-22T06:35:40;10.90;;;10.50;;
20179;SDS011;10249;48.900;9.090;2023-06-22T06:38:07;11.03;;;10.63;;
20179;SDS011;10249;48.900;9.090;2023-06-22T06:40:35;11.10;;;10.70;;
20179;SDS011;10249;48.900;9.090;2023-06-22T06:43:02;11.27;;;10.87;;
20179;SDS011;10249;48.900;9.090;2023-06-22T06:45:30;11.40;;;11.00;;
20179;SDS011;10249;48.900;9.090;2023-06-22T06:47:59;10.80;;;10.40;;
20179;SDS011;10249;48.900;9.090;2023-06-22T06:50:27;11.60;;;11.20;;
20179;SDS011;10249;48.900;9.090;2023-06-22T06:52:54;11.90;;;11.50;;
20179;SDS011;10249;48.900;9.090;2023-06-22T06:55:24;12.00;;;11.60;;
20179;SDS011;10249;48.900;9.090;2023-06-22T06:57:52;11.90;;;11.50;;
20179;SDS011;10249;48.900;9.090;2023-06-22T07:00:20;12.33;;;11.93;;
20179;SDS011;10249;48.900;9.090;2023-06-22T07:02:47;12.20;;;11.80;;
20179;SDS011;10249;48.900;9.090;2023-06-22T07:05:14;12.60;;;12.10;;
20179;SDS011;10249;48.900;9.090;2023-06-22T07:07:41;11.88;;;11.48;;
20179;SDS011;10249;48.900;9.090;2023-06-22T07:10:09;12.32;;;11.93;;
20179;SDS011;10249;48.900;9.090;2023-06-22T07:12:36;12.32;;;11.82;;
20179;SDS011;10249;48.900;9.090;2023-06-22T07:15:05;12.20;;;11.80;;
20179;SDS011;10249;48.900;9.090;2023-06-22T07:17:33;12.13;;;11.73;;
20179;SDS011;10249;48.900;9.090;2023-06-22T07:20:00;12.40;;;12.00;;
20179;SDS011;10249;48.900;9.090;2023-06-22T07:22:28;12.60;;;12.10;;
20179;SDS011;10249;48.900;9.090;2023-06-22T07:24:55;12.43;;;11.93;;
20179;SDS011;10249;48.900;9.090;2023-06-22T07:27:22;12.80;;;12.30;;
20179;SDS011;10249;48.900;9.090;2023-06-22T07:29:49;12.60;;;12.10;;
20179;SDS011;10249;48.900;9.090;2023-06-22T07:32:18;12.73;;;12.23;;
20179;SDS011;10249;48.900;9.090;2023-06-22T07:34:45;12.80;;;12.30;;
20179;SDS011;10249;48.900;9.090;2023-06-22T07:37:12;13.07;;;12.57;;
20179;SDS011;10249;48.900;9.090;2023-06-22T07:39:39;13.35;;;12.85;;
20179;SDS011;10249;48.900;9.090;2023-06-22T07:42:07;12.95;;;12.45;;
20179;SDS011;10249;48.900;9.090;2023-06-22T07:44:35;13.07;;;12.57;;
20179;SDS011;10249;48.900;9.090;2023-06-22T07:47:02;13.20;;;12.70;;
20179;SDS011;10249;48.900;9.090;2023-06-22T07:49:30;13.60;;;13.10;;
20179;SDS011;10249;48.900;9.090;2023-06-22T07:51:57;13.20;;;12.70;;
20179;SDS011;10249;48.900;9.090;2023-06-22T07:54:26;13.48;;;12.98;;
20179;SDS011;10249;48.900;9.090;2023-06-22T07:56:53;13.25;;;12.75;;
20179;SDS011;10249;48.900;9.090;2023-06-22T07:59:20;13.43;;;12.93;;
20179;SDS011;10249;48.900;9.090;2023-06-22T08:01:47;13.48;;;12.98;;
20179;SDS011;10249;48.900;9.090;2023-06-22T08:04:15;13.30;;;12.80;;
20179;SDS011;10249;48.900;9.090;2023-06-22T08:06:43;13.50;;;13.00;;
20179;SDS011;10249;48.900;9.090;2023-06-22T08:09:10;13.52;;;13.02;;
20179;SDS011;10249;48.900;9.090;2023-06-22T08:11:38;13.63;;;13.13;;
20179;SDS011;10249;48.900;9.090;2023-06-22T08:14:05;13.70;;;13.10;;
20179;SDS011;10249;48.900;9.090;2023-06-22T08:16:32;13.38;;;12.88;;
20179;SDS011;10249;48.900;9.090;2023-06-22T08:18:59;13.60;;;13.07;;
20179;SDS011;10249;48.900;9.090;2023-06-22T08:21:26;13.93;;;13.32;;
20179;SDS011;10249;48.900;9.090;2023-06-22T08:23:54;14.35;;;13.75;;
20179;SDS011;10249;48.900;9.090;2023-06-22T08:26:22;14.40;;;13.80;;
20179;SDS011;10249;48.900;9.090;2023-06-22T08:28:49;14.15;;;13.55;;
20179;SDS011;10249;48.900;9.090;2023-06-22T08:31:16;14.45;;;13.85;;
20179;SDS011;10249;48.900;9.090;2023-06-22T08:33:43;14.98;;;14.27;;
20179;SDS011;10249;48.900;9.090;2023-06-22T08:36:11;14.40;;;13.80;;
20179;SDS011;10249;48.900;9.090;2023-06-22T08:38:39;14.45;;;13.85;;
20179;SDS011;10249;48.900;9.090;2023-06-22T08:41:07;15.25;;;14.55;;
20179;SDS011;10249;48.900;9.090;2023-06-22T08:43:34;15.10;;;14.40;;
20179;SDS011;10249;48.900;9.090;2023-06-22T08:46:01;14.70;;;14.10;;
20179;SDS011;10249;48.900;9.090;2023-06-22T08:48:28;15.02;;;14.38;;
20179;SDS011;10249;48.900;9.090;2023-06-22T08:50:55;15.00;;;14.30;;
20179;SDS011;10249;48.900;9.090;2023-06-22T08:53:22;15.02;;;14.32;;
20179;SDS011;10249;48.900;9.090;2023-06-22T08:55:50;14.55;;;13.95;;
20179;SDS011;10249;48.900;9.090;2023-06-22T08:58:19;14.88;;;14.18;;
20179;SDS011;10249;48.900;9.090;2023-06-22T09:00:46;14.90;;;14.20;;
20179;SDS011;10249;48.900;9.090;2023-06-22T09:03:13;15.00;;;14.30;;
20179;SDS011;10249;48.900;9.090;2023-06-22T09:05:41;15.70;;;14.90;;
20179;SDS011;10249;48.900;9.090;2023-06-22T09:08:08;14.15;;;13.55;;
20179;SDS011;10249;48.900;9.090;2023-06-22T09:10:35;13.98;;;13.38;;
20179;SDS011;10249;48.900;9.090;2023-06-22T09:13:02;14.00;;;13.40;;
20179;SDS011;10249;48.900;9.090;2023-06-22T09:15:31;14.07;;;13.48;;
20179;SDS011;10249;48.900;9.090;2023-06-22T09:17:59;13.88;;;13.27;;
20179;SDS011;10249;48.900;9.090;2023-06-22T09:20:26;14.20;;;13.60;;
20179;SDS011;10249;48.900;9.090;2023-06-22T09:22:53;14.20;;;13.60;;
20179;SDS011;10249;48.900;9.090;2023-06-22T09:25:20;20.80;;;19.30;;
20179;SDS011;10249;48.900;9.090;2023-06-22T09:27:47;14.25;;;13.65;;
20179;SDS011;10249;48.900;9.090;2023-06-22T09:30:14;14.30;;;13.70;;
20179;SDS011;10249;48.900;9.090;2023-06-22T09:32:43;14.05;;;13.45;;
20179;SDS011;10249;48.900;9.090;2023-06-22T09:35:10;14.00;;;13.40;;
20179;SDS011;10249;48.900;9.090;2023-06-22T09:37:38;14.20;;;13.60;;
20179;SDS011;10249;48.900;9.090;2023-06-22T09:40:06;14.32;;;13.73;;
20179;SDS011;10249;48.900;9.090;2023-06-22T09:42:36;14.45;;;13.85;;
20179;SDS011;10249;48.900;9.090;2023-06-22T09:45:03;14.40;;;13.80;;
20179;SDS011;10249;48.900;9.090;2023-06-22T09:47:31;14.60;;;14.00;;
20179;SDS011;10249;48.900;9.090;2023-06-22T09:49:59;14.85;;;14.15;;
20179;SDS011;10249;48.900;9.090;2023-06-22T09:52:26;15.00;;;14.30;;
20179;SDS011;10249;48.900;9.090;2023-06-22T09:54:54;14.90;;;14.20;;
20179;SDS011;10249;48.900;9.090;2023-06-22T09:57:21;14.32;;;13.73;;
20179;SDS011;10249;48.900;9.090;2023-06-22T09:59:48;14.80;;;14.10;;
20179;SDS011;10249;48.900;9.090;2023-06-22T10:02:15;14.88;;;14.18;;
20179;SDS011;10249;48.900;9.090;2023-06-22T10:04:42;14.77;;;14.07;;
20179;SDS011;10249;48.900;9.090;2023-06-22T10:07:11;15.48;;;14.77;;
20179;SDS011;10249;48.900;9.090;2023-06-22T10:09:38;15.40;;;14.70;;
20179;SDS011;10249;48.900;9.090;2023-06-22T10:12:05;15.50;;;14.80;;
20179;SDS011;10249;48.900;9.090;2023-06-22T10:14:33;16.00;;;15.30;;
20179;SDS011;10249;48.900;9.090;2023-06-22T10:17:00;16.13;;;15.43;;
20179;SDS011;10249;48.900;9.090;2023-06-22T10:19:27;15.82;;;15.13;;
20179;SDS011;10249;48.900;9.090;2023-06-22T10:21:54;14.95;;;14.25;;
20179;SDS011;10249;48.900;9.090;2023-06-22T10:24:22;15.00;;;14.30;;
20179;SDS011;10249;48.900;9.090;2023-06-22T10:26:49;15.00;;;14.30;;
20179;SDS011;10249;48.900;9.090;2023-06-22T10:29:16;14.82;;;14.13;;
20179;SDS011;10249;48.900;9.090;2023-06-22T10:31:44;14.80;;;14.10;;
20179;SDS011;10249;48.900;9.090;2023-06-22T10:34:11;14.90;;;14.20;;
20179;SDS011;10249;48.900;9.090;2023-06-22T10:36:38;14.80;;;14.10;;
20179;SDS011;10249;48.900;9.090;2023-06-22T10:39:05;14.57;;;13.88;;
20179;SDS011;10249;48.900;9.090;2023-06-22T10:41:35;14.73;;;14.02;;
20179;SDS011;10249;48.900;9.090;2023-06-22T10:44:02;14.93;;;14.23;;
20179;SDS011;10249;48.900;9.090;2023-06-22T10:46:29;15.00;;;14.30;;
20179;SDS011;10249;48.900;9.090;2023-06-22T10:48:56;14.98;;;14.27;;
20179;SDS011;10249;48.900;9.090;2023-06-22T10:51:23;14.95;;;14.25;;
20179;SDS011;10249;48.900;9.090;2023-06-22T10:53:53;15.10;;;14.40;;
20179;SDS011;10249;48.900;9.090;2023-06-22T10:56:20;15.07;;;14.38;;
20179;SDS011;10249;48.900;9.090;2023-06-22T10:58:50;15.30;;;14.60;;
20179;SDS011;10249;48.900;9.090;2023-06-22T11:01:17;15.05;;;14.35;;
20179;SDS011;10249;48.900;9.090;2023-06-22T11:03:44;15.18;;;14.48;;
20179;SDS011;10249;48.900;9.090;2023-06-22T11:06:11;14.95;;;14.25;;
20179;SDS011;10249;48.900;9.090;2023-06-22T11:08:39;15.40;;;14.70;;
20179;SDS011;10249;48.900;9.090;2023-06-22T11:11:06;15.40;;;14.70;;
20179;SDS011;10249;48.900;9.090;2023-06-22T11:13:33;15.05;;;14.35;;
20179;SDS011;10249;48.900;9.090;2023-06-22T11:16:02;15.13;;;14.43;;
20179;SDS011;10249;48.900;9.090;2023-06-22T11:18:30;14.85;;;14.15;;
20179;SDS011;10249;48.900;9.090;2023-06-22T11:20:58;15.25;;;14.55;;
20179;SDS011;10249;48.900;9.090;2023-06-22T11:23:25;15.45;;;14.75;;
20179;SDS011;10249;48.900;9.090;2023-06-22T11:25:53;15.13;;;14.43;;
20179;SDS011;10249;48.900;9.090;2023-06-22T11:28:20;15.13;;;14.43;;
20179;SDS011;10249;48.900;9.090;2023-06-22T11:30:47;15.20;;;14.50;;
20179;SDS011;10249;48.900;9.090;2023-06-22T11:33:16;15.13;;;14.43;;
20179;SDS011;10249;48.900;9.090;2023-06-22T11:35:43;14.93;;;14.23;;
20179;SDS011;10249;48.900;9.090;2023-06-22T11:38:10;14.93;;;14.23;;
20179;SDS011;10249;48.900;9.090;2023-06-22T11:40:37;14.85;;;14.15;;
20179;SDS011;10249;48.900;9.090;2023-06-22T11:43:04;14.70;;;14.00;;
20179;SDS011;10249;48.900;9.090;2023-06-22T11:45:31;14.88;;;14.18;;
20179;SDS011;10249;48.900;9.090;2023-06-22T11:47:58;14.63;;;13.93;;
20179;SDS011;10249;48.900;9.090;2023-06-22T11:50:27;15.40;;;14.70;;
20179;SDS011;10249;48.900;9.090;2023-06-22T11:52:55;15.40;;;14.70;;
20179;SDS011;10249;48.900;9.090;2023-06-22T11:55:22;15.45;;;14.75;;
20179;SDS011;10249;48.900;9.090;2023-06-22T11:57:53;15.18;;;14.48;;
20179;SDS011;10249;48.900;9.090;2023-06-22T12:00:20;15.15;;;14.45;;
20179;SDS011;10249;48.900;9.090;2023-06-22T12:02:49;15.40;;;14.70;;
20179;SDS011;10249;48.900;9.090;2023-06-22T12:05:17;15.70;;;15.00;;
20179;SDS011;10249;48.900;9.090;2023-06-22T12:07:46;15.75;;;15.02;;
20179;SDS011;10249;48.900;9.090;2023-06-22T12:10:13;15.27;;;14.57;;
20179;SDS011;10249;48.900;9.090;2023-06-22T12:12:41;15.10;;;14.40;;
20179;SDS011;10249;48.900;9.090;2023-06-22T12:15:09;15.30;;;14.60;;
20179;SDS011;10249;48.900;9.090;2023-06-22T12:17:36;15.32;;;14.63;;
20179;SDS011;10249;48.900;9.090;2023-06-22T12:20:04;15.23;;;14.52;;
20179;SDS011;10249;48.900;9.090;2023-06-22T12:22:32;15.23;;;14.52;;
20179;SDS011;10249;48.900;9.090;2023-06-22T12:25:01;15.45;;;14.75;;
20179;SDS011;10249;48.900;9.090;2023-06-22T12:27:28;15.30;;;14.60;;
20179;SDS011;10249;48.900;9.090;2023-06-22T12:29:56;14.30;;;13.60;;
20179;SDS011;10249;48.900;9.090;2023-06-22T12:32:23;14.30;;;13.60;;
20179;SDS011;10249;48.900;9.090;2023-06-22T12:34:50;14.30;;;13.70;;
20179;SDS011;10249;48.900;9.090;2023-06-22T12:37:18;14.77;;;14.07;;
20179;SDS011;10249;48.900;9.090;2023-06-22T12:39:45;14.35;;;13.65;;
20179;SDS011;10249;48.900;9.090;2023-06-22T12:42:13;14.60;;;13.90;;
20179;SDS011;10249;48.900;9.090;2023-06-22T12:44:40;14.50;;;13.80;;
20179;SDS011;10249;48.900;9.090;2023-06-22T12:47:07;15.40;;;14.70;;
20179;SDS011;10249;48.900;9.090;2023-06-22T12:49:35;15.40;;;14.70;;
20179;SDS011;10249;48.900;9.090;2023-06-22T12:52:02;14.93;;;14.23;;
20179;SDS011;10249;48.900;9.090;2023-06-22T12:54:29;14.98;;;14.27;;
20179;SDS011;10249;48.900;9.090;2023-06-22T12:56:56;15.48;;;14.77;;
20179;SDS011;10249;48.900;9.090;2023-06-22T12:59:25;14.80;;;14.10;;
20179;SDS011;10249;48.900;9.090;2023-06-22T13:01:52;14.75;;;14.05;;
20179;SDS011;10249;48.900;9.090;2023-06-22T13:04:19;14.68;;;13.98;;
20179;SDS011;10249;48.900;9.090;2023-06-22T13:06:46;14.60;;;13.90;;
20179;SDS011;10249;48.900;9.090;2023-06-22T13:09:14;14.60;;;13.90;;
20179;SDS011;10249;48.900;9.090;2023-06-22T13:11:41;14.70;;;14.00;;
20179;SDS011;10249;48.900;9.090;2023-06-22T13:14:08;14.50;;;13.80;;
20179;SDS011;10249;48.900;9.090;2023-06-22T13:16:37;14.43;;;13.73;;
20179;SDS011;10249;48.900;9.090;2023-06-22T13:19:04;14.15;;;13.55;;
20179;SDS011;10249;48.900;9.090;2023-06-22T13:21:31;14.32;;;13.73;;
20179;SDS011;10249;48.900;9.090;2023-06-22T13:23:59;14.38;;;13.77;;
20179;SDS011;10249;48.900;9.090;2023-06-22T13:26:26;14.52;;;13.93;;
20179;SDS011;10249;48.900;9.090;2023-06-22T13:28:54;14.50;;;13.88;;
20179;SDS011;10249;48.900;9.090;2023-06-22T13:31:21;14.50;;;13.90;;
20179;SDS011;10249;48.900;9.090;2023-06-22T13:33:49;14.40;;;13.80;;
20179;SDS011;10249;48.900;9.090;2023-06-22T13:36:17;14.50;;;13.80;;
20179;SDS011;10249;48.900;9.090;2023-06-22T13:38:44;14.32;;;13.73;;
20179;SDS011;10249;48.900;9.090;2023-06-22T13:41:12;14.65;;;13.95;;
20179;SDS011;10249;48.900;9.090;2023-06-22T13:43:39;14.48;;;13.77;;
20179;SDS011;10249;48.900;9.090;2023-06-22T13:46:06;14.45;;;13.75;;
20179;SDS011;10249;48.900;9.090;2023-06-22T13:48:33;14.45;;;13.75;;
20179;SDS011;10249;48.900;9.090;2023-06-22T13:51:02;14.20;;;13.60;;
20179;SDS011;10249;48.900;9.090;2023-06-22T13:53:29;14.43;;;13.73;;
20179;SDS011;10249;48.900;9.090;2023-06-22T13:55:56;14.70;;;14.00;;
20179;SDS011;10249;48.900;9.090;2023-06-22T13:58:23;14.77;;;14.07;;
20179;SDS011;10249;48.900;9.090;2023-06-22T14:00:50;14.80;;;14.10;;
20179;SDS011;10249;48.900;9.090;2023-06-22T14:03:17;14.35;;;13.65;;
20179;SDS011;10249;48.900;9.090;2023-06-22T14:05:44;14.70;;;14.00;;
20179;SDS011;10249;48.900;9.090;2023-06-22T14:08:13;14.90;;;14.20;;
20179;SDS011;10249;48.900;9.090;2023-06-22T14:10:40;14.90;;;14.20;;
20179;SDS011;10249;48.900;9.090;2023-06-22T14:13:07;14.90;;;14.20;;
20179;SDS011;10249;48.900;9.090;2023-06-22T14:15:34;14.60;;;13.90;;
20179;SDS011;10249;48.900;9.090;2023-06-22T14:18:01;14.60;;;13.90;;
20179;SDS011;10249;48.900;9.090;2023-06-22T14:20:28;14.50;;;13.90;;
20179;SDS011;10249;48.900;9.090;2023-06-22T14:22:55;14.65;;;13.95;;
20179;SDS011;10249;48.900;9.090;2023-06-22T14:25:24;14.82;;;14.13;;
20179;SDS011;10249;48.900;9.090;2023-06-22T14:27:51;14.25;;;13.57;;
20179;SDS011;10249;48.900;9.090;2023-06-22T14:30:19;14.70;;;14.00;;
20179;SDS011;10249;48.900;9.090;2023-06-22T14:32:46;14.40;;;13.80;;
20179;SDS011;10249;48.900;9.090;2023-06-22T14:35:13;14.45;;;13.85;;